Terminal Aerodrome Forecast
Issued by NWS

Home | Current Version | Previous Version | Text Only | Print | Product List | Glossary On
Versions: 1 2 3 4 5 6 7 8 9 10 11 12 13 14 15 16 17 18 19 20 21
000
FTUS42 KTAE 252321
TAFVLD
TAF
KVLD 252321Z 2600/2624 VRB04KT P6SM SCT050
     FM260900 00000KT 5SM BR BKN007
     FM261400 VRB04KT P6SM SCT040
     FM261800 17006KT P6SM VCTS SCT050CB=

USA.gov is the U.S. government's official web portal to all federal, state and local government web resources and services.